sensor_id;sensor_type;location;lat;lon;timestamp;temperature;humidity
22249;DHT22;67538;52.180;5.646;2023-03-29T00:00:08;5.70;99.90
22249;DHT22;67538;52.180;5.646;2023-03-29T00:02:39;5.70;99.90
22249;DHT22;67538;52.180;5.646;2023-03-29T00:05:08;5.80;99.90
22249;DHT22;67538;52.180;5.646;2023-03-29T00:07:35;5.80;99.90
22249;DHT22;67538;52.180;5.646;2023-03-29T00:10:03;5.80;99.90
22249;DHT22;67538;52.180;5.646;2023-03-29T00:12:30;5.70;99.90
22249;DHT22;67538;52.180;5.646;2023-03-29T00:14:59;5.70;99.90
22249;DHT22;67538;52.180;5.646;2023-03-29T00:17:26;5.70;99.90
22249;DHT22;67538;52.180;5.646;2023-03-29T00:19:53;5.80;99.90
22249;DHT22;67538;52.180;5.646;2023-03-29T00:22:20;5.80;99.90
22249;DHT22;67538;52.180;5.646;2023-03-29T00:24:51;5.80;99.90
22249;DHT22;67538;52.180;5.646;2023-03-29T00:27:19;5.80;99.90
22249;DHT22;67538;52.180;5.646;2023-03-29T00:29:46;5.80;99.90
22249;DHT22;67538;52.180;5.646;2023-03-29T00:32:14;5.80;99.90
22249;DHT22;67538;52.180;5.646;2023-03-29T00:34:42;5.80;99.90
22249;DHT22;67538;52.180;5.646;2023-03-29T00:37:10;5.80;99.90
22249;DHT22;67538;52.180;5.646;2023-03-29T00:39:39;5.80;99.90
22249;DHT22;67538;52.180;5.646;2023-03-29T00:42:11;5.80;99.90
22249;DHT22;67538;52.180;5.646;2023-03-29T00:45:15;5.80;99.90
22249;DHT22;67538;52.180;5.646;2023-03-29T00:47:46;5.90;99.90
22249;DHT22;67538;52.180;5.646;2023-03-29T00:50:16;5.90;99.90
22249;DHT22;67538;52.180;5.646;2023-03-29T00:52:51;5.90;99.90
22249;DHT22;67538;52.180;5.646;2023-03-29T00:55:20;5.80;99.90
22249;DHT22;67538;52.180;5.646;2023-03-29T00:57:50;5.90;99.90
22249;DHT22;67538;52.180;5.646;2023-03-29T01:00:23;5.80;99.90
22249;DHT22;67538;52.180;5.646;2023-03-29T01:02:56;5.90;99.90
22249;DHT22;67538;52.180;5.646;2023-03-29T01:05:28;5.90;99.90
22249;DHT22;67538;52.180;5.646;2023-03-29T01:07:59;5.90;99.90
22249;DHT22;67538;52.180;5.646;2023-03-29T01:10:32;5.90;99.90
22249;DHT22;67538;52.180;5.646;2023-03-29T01:13:03;5.90;99.90
22249;DHT22;67538;52.180;5.646;2023-03-29T01:15:32;5.90;99.90
22249;DHT22;67538;52.180;5.646;2023-03-29T01:18:00;5.90;99.90
22249;DHT22;67538;52.180;5.646;2023-03-29T01:20:41;5.90;99.90
22249;DHT22;67538;52.180;5.646;2023-03-29T01:23:31;5.90;99.90
22249;DHT22;67538;52.180;5.646;2023-03-29T01:26:09;5.90;99.90
22249;DHT22;67538;52.180;5.646;2023-03-29T01:28:45;5.90;99.90
22249;DHT22;67538;52.180;5.646;2023-03-29T01:31:16;5.90;99.90
22249;DHT22;67538;52.180;5.646;2023-03-29T01:33:47;6.00;99.90
22249;DHT22;67538;52.180;5.646;2023-03-29T01:36:19;6.00;99.90
22249;DHT22;67538;52.180;5.646;2023-03-29T01:38:52;6.00;99.90
22249;DHT22;67538;52.180;5.646;2023-03-29T01:41:21;6.00;99.90
22249;DHT22;67538;52.180;5.646;2023-03-29T01:43:57;6.00;99.90
22249;DHT22;67538;52.180;5.646;2023-03-29T01:46:28;6.00;99.90
22249;DHT22;67538;52.180;5.646;2023-03-29T01:48:59;6.00;99.90
22249;DHT22;67538;52.180;5.646;2023-03-29T01:51:32;6.00;99.90
22249;DHT22;67538;52.180;5.646;2023-03-29T01:54:04;6.00;99.90
22249;DHT22;67538;52.180;5.646;2023-03-29T01:56:35;6.00;99.90
22249;DHT22;67538;52.180;5.646;2023-03-29T01:59:07;6.10;99.90
22249;DHT22;67538;52.180;5.646;2023-03-29T02:01:39;6.10;99.90
22249;DHT22;67538;52.180;5.646;2023-03-29T02:04:10;6.10;99.90
22249;DHT22;67538;52.180;5.646;2023-03-29T02:06:40;6.10;99.90
22249;DHT22;67538;52.180;5.646;2023-03-29T02:09:07;6.10;99.90
22249;DHT22;67538;52.180;5.646;2023-03-29T02:11:35;6.10;99.90
22249;DHT22;67538;52.180;5.646;2023-03-29T02:14:02;6.10;99.90
22249;DHT22;67538;52.180;5.646;2023-03-29T02:16:35;6.10;99.90
22249;DHT22;67538;52.180;5.646;2023-03-29T02:19:04;6.00;99.90
22249;DHT22;67538;52.180;5.646;2023-03-29T02:21:38;6.10;99.90
22249;DHT22;67538;52.180;5.646;2023-03-29T02:24:08;6.10;99.90
22249;DHT22;67538;52.180;5.646;2023-03-29T02:26:38;6.10;99.90
22249;DHT22;67538;52.180;5.646;2023-03-29T02:29:05;6.10;99.90
22249;DHT22;67538;52.180;5.646;2023-03-29T02:31:36;6.10;99.90
22249;DHT22;67538;52.180;5.646;2023-03-29T02:34:11;6.10;99.90
22249;DHT22;67538;52.180;5.646;2023-03-29T02:36:46;6.10;99.90
22249;DHT22;67538;52.180;5.646;2023-03-29T02:39:15;6.00;99.90
22249;DHT22;67538;52.180;5.646;2023-03-29T02:41:44;6.00;99.90
22249;DHT22;67538;52.180;5.646;2023-03-29T02:44:15;6.00;99.90
22249;DHT22;67538;52.180;5.646;2023-03-29T02:46:45;6.00;99.90
22249;DHT22;67538;52.180;5.646;2023-03-29T02:49:13;5.90;99.90
22249;DHT22;67538;52.180;5.646;2023-03-29T02:51:41;5.90;99.90
22249;DHT22;67538;52.180;5.646;2023-03-29T02:54:12;5.90;99.90
22249;DHT22;67538;52.180;5.646;2023-03-29T02:56:41;5.90;99.90
22249;DHT22;67538;52.180;5.646;2023-03-29T02:59:09;5.90;99.90
22249;DHT22;67538;52.180;5.646;2023-03-29T03:01:36;5.90;99.90
22249;DHT22;67538;52.180;5.646;2023-03-29T03:04:05;5.90;99.90
22249;DHT22;67538;52.180;5.646;2023-03-29T03:06:32;5.90;99.90
22249;DHT22;67538;52.180;5.646;2023-03-29T03:09:01;6.00;99.90
22249;DHT22;67538;52.180;5.646;2023-03-29T03:11:29;6.00;99.90
22249;DHT22;67538;52.180;5.646;2023-03-29T03:13:56;6.00;99.90
22249;DHT22;67538;52.180;5.646;2023-03-29T03:16:23;6.00;99.90
22249;DHT22;67538;52.180;5.646;2023-03-29T03:18:51;6.10;99.90
22249;DHT22;67538;52.180;5.646;2023-03-29T03:21:21;6.10;99.90
22249;DHT22;67538;52.180;5.646;2023-03-29T03:23:48;6.10;99.90
22249;DHT22;67538;52.180;5.646;2023-03-29T03:26:15;6.10;99.90
22249;DHT22;67538;52.180;5.646;2023-03-29T03:28:43;6.20;99.90
22249;DHT22;67538;52.180;5.646;2023-03-29T03:31:11;6.20;99.90
22249;DHT22;67538;52.180;5.646;2023-03-29T03:33:39;6.20;99.90
22249;DHT22;67538;52.180;5.646;2023-03-29T03:36:07;6.20;99.90
22249;DHT22;67538;52.180;5.646;2023-03-29T03:38:36;6.20;99.90
22249;DHT22;67538;52.180;5.646;2023-03-29T03:41:04;6.30;99.90
22249;DHT22;67538;52.180;5.646;2023-03-29T03:43:32;6.20;99.90
22249;DHT22;67538;52.180;5.646;2023-03-29T03:45:59;6.30;99.90
22249;DHT22;67538;52.180;5.646;2023-03-29T03:48:27;6.30;99.90
22249;DHT22;67538;52.180;5.646;2023-03-29T03:50:55;6.30;99.90
22249;DHT22;67538;52.180;5.646;2023-03-29T03:53:23;6.30;99.90
22249;DHT22;67538;52.180;5.646;2023-03-29T03:55:53;6.20;99.90
22249;DHT22;67538;52.180;5.646;2023-03-29T03:58:21;6.20;99.90
22249;DHT22;67538;52.180;5.646;2023-03-29T04:00:49;6.30;99.90
22249;DHT22;67538;52.180;5.646;2023-03-29T04:03:16;6.30;99.90
22249;DHT22;67538;52.180;5.646;2023-03-29T04:05:45;6.30;99.90
22249;DHT22;67538;52.180;5.646;2023-03-29T04:08:13;6.30;99.90
22249;DHT22;67538;52.180;5.646;2023-03-29T04:10:40;6.30;99.90
22249;DHT22;67538;52.180;5.646;2023-03-29T04:13:09;6.30;99.90
22249;DHT22;67538;52.180;5.646;2023-03-29T04:15:36;6.30;99.90
22249;DHT22;67538;52.180;5.646;2023-03-29T04:18:04;6.30;99.90
22249;DHT22;67538;52.180;5.646;2023-03-29T04:20:32;6.30;99.90
22249;DHT22;67538;52.180;5.646;2023-03-29T04:22:59;6.30;99.90
22249;DHT22;67538;52.180;5.646;2023-03-29T04:25:26;6.30;99.90
22249;DHT22;67538;52.180;5.646;2023-03-29T04:27:53;6.30;99.90
22249;DHT22;67538;52.180;5.646;2023-03-29T04:30:22;6.40;99.90
22249;DHT22;67538;52.180;5.646;2023-03-29T04:32:49;6.40;99.90
22249;DHT22;67538;52.180;5.646;2023-03-29T04:35:16;6.40;99.90
22249;DHT22;67538;52.180;5.646;2023-03-29T04:37:43;6.40;99.90
22249;DHT22;67538;52.180;5.646;2023-03-29T04:40:11;6.50;99.90
22249;DHT22;67538;52.180;5.646;2023-03-29T04:42:39;6.40;99.90
22249;DHT22;67538;52.180;5.646;2023-03-29T04:45:09;6.40;99.90
22249;DHT22;67538;52.180;5.646;2023-03-29T04:47:40;6.50;99.90
22249;DHT22;67538;52.180;5.646;2023-03-29T04:50:08;6.50;99.90
22249;DHT22;67538;52.180;5.646;2023-03-29T04:52:35;6.50;99.90
22249;DHT22;67538;52.180;5.646;2023-03-29T04:55:03;6.50;99.90
22249;DHT22;67538;52.180;5.646;2023-03-29T04:57:31;6.50;99.90
22249;DHT22;67538;52.180;5.646;2023-03-29T04:59:58;6.50;99.90
22249;DHT22;67538;52.180;5.646;2023-03-29T05:02:25;6.50;99.90
22249;DHT22;67538;52.180;5.646;2023-03-29T05:04:56;6.60;99.90
22249;DHT22;67538;52.180;5.646;2023-03-29T05:07:23;6.60;99.90
22249;DHT22;67538;52.180;5.646;2023-03-29T05:09:50;6.70;99.90
22249;DHT22;67538;52.180;5.646;2023-03-29T05:12:17;6.60;99.90
22249;DHT22;67538;52.180;5.646;2023-03-29T05:14:45;6.70;99.90
22249;DHT22;67538;52.180;5.646;2023-03-29T05:17:12;6.70;99.90
22249;DHT22;67538;52.180;5.646;2023-03-29T05:19:39;6.70;99.90
22249;DHT22;67538;52.180;5.646;2023-03-29T05:22:07;6.70;99.90
22249;DHT22;67538;52.180;5.646;2023-03-29T05:24:34;6.70;99.90
22249;DHT22;67538;52.180;5.646;2023-03-29T05:27:02;6.80;99.90
22249;DHT22;67538;52.180;5.646;2023-03-29T05:29:29;6.70;99.90
22249;DHT22;67538;52.180;5.646;2023-03-29T05:31:57;6.80;99.90
22249;DHT22;67538;52.180;5.646;2023-03-29T05:34:25;6.80;99.90
22249;DHT22;67538;52.180;5.646;2023-03-29T05:36:52;6.80;99.90
22249;DHT22;67538;52.180;5.646;2023-03-29T05:39:20;6.80;99.90
22249;DHT22;67538;52.180;5.646;2023-03-29T05:41:48;6.80;99.90
22249;DHT22;67538;52.180;5.646;2023-03-29T05:44:15;6.80;99.90
22249;DHT22;67538;52.180;5.646;2023-03-29T05:46:42;6.80;99.90
22249;DHT22;67538;52.180;5.646;2023-03-29T05:49:09;6.80;99.90
22249;DHT22;67538;52.180;5.646;2023-03-29T05:51:36;6.80;99.90
22249;DHT22;67538;52.180;5.646;2023-03-29T05:54:04;6.90;99.90
22249;DHT22;67538;52.180;5.646;2023-03-29T05:56:33;6.90;99.90
22249;DHT22;67538;52.180;5.646;2023-03-29T05:59:00;6.90;99.90
22249;DHT22;67538;52.180;5.646;2023-03-29T06:01:27;6.90;99.90
22249;DHT22;67538;52.180;5.646;2023-03-29T06:03:54;6.90;99.90
22249;DHT22;67538;52.180;5.646;2023-03-29T06:06:22;6.90;99.90
22249;DHT22;67538;52.180;5.646;2023-03-29T06:08:49;7.00;99.90
22249;DHT22;67538;52.180;5.646;2023-03-29T06:11:16;7.00;99.90
22249;DHT22;67538;52.180;5.646;2023-03-29T06:13:44;7.00;99.90
22249;DHT22;67538;52.180;5.646;2023-03-29T06:16:11;7.10;99.90
22249;DHT22;67538;52.180;5.646;2023-03-29T06:18:38;7.10;99.90
22249;DHT22;67538;52.180;5.646;2023-03-29T06:21:06;7.10;99.90
22249;DHT22;67538;52.180;5.646;2023-03-29T06:23:34;7.10;99.90
22249;DHT22;67538;52.180;5.646;2023-03-29T06:26:02;7.20;99.90
22249;DHT22;67538;52.180;5.646;2023-03-29T06:28:30;7.10;99.90
22249;DHT22;67538;52.180;5.646;2023-03-29T06:30:59;7.20;99.90
22249;DHT22;67538;52.180;5.646;2023-03-29T06:33:27;7.20;99.90
22249;DHT22;67538;52.180;5.646;2023-03-29T06:35:55;7.20;99.90
22249;DHT22;67538;52.180;5.646;2023-03-29T06:38:22;7.30;99.90
22249;DHT22;67538;52.180;5.646;2023-03-29T06:40:51;7.30;99.90
22249;DHT22;67538;52.180;5.646;2023-03-29T06:43:18;7.30;99.90
22249;DHT22;67538;52.180;5.646;2023-03-29T06:45:45;7.30;99.90
22249;DHT22;67538;52.180;5.646;2023-03-29T06:48:14;7.40;99.90
22249;DHT22;67538;52.180;5.646;2023-03-29T06:50:41;7.50;99.90
22249;DHT22;67538;52.180;5.646;2023-03-29T06:53:08;7.60;99.90
22249;DHT22;67538;52.180;5.646;2023-03-29T06:55:35;7.70;99.90
22249;DHT22;67538;52.180;5.646;2023-03-29T06:58:02;7.80;99.90
22249;DHT22;67538;52.180;5.646;2023-03-29T07:00:29;7.80;99.90
22249;DHT22;67538;52.180;5.646;2023-03-29T07:03:05;7.90;99.90
22249;DHT22;67538;52.180;5.646;2023-03-29T07:05:35;8.00;99.90
22249;DHT22;67538;52.180;5.646;2023-03-29T07:08:05;8.00;99.90
22249;DHT22;67538;52.180;5.646;2023-03-29T07:10:40;8.10;99.90
22249;DHT22;67538;52.180;5.646;2023-03-29T07:13:09;8.10;99.90
22249;DHT22;67538;52.180;5.646;2023-03-29T07:15:37;8.10;99.90
22249;DHT22;67538;52.180;5.646;2023-03-29T07:18:05;8.20;99.90
22249;DHT22;67538;52.180;5.646;2023-03-29T07:20:32;8.30;99.90
22249;DHT22;67538;52.180;5.646;2023-03-29T07:23:01;8.30;99.90
22249;DHT22;67538;52.180;5.646;2023-03-29T07:25:28;8.40;99.90
22249;DHT22;67538;52.180;5.646;2023-03-29T07:27:55;8.40;99.90
22249;DHT22;67538;52.180;5.646;2023-03-29T07:30:24;8.40;99.90
22249;DHT22;67538;52.180;5.646;2023-03-29T07:32:52;8.50;99.90
22249;DHT22;67538;52.180;5.646;2023-03-29T07:35:20;8.60;99.90
22249;DHT22;67538;52.180;5.646;2023-03-29T07:37:48;8.90;99.90
22249;DHT22;67538;52.180;5.646;2023-03-29T07:40:18;9.30;99.90
22249;DHT22;67538;52.180;5.646;2023-03-29T07:42:49;9.40;99.90
22249;DHT22;67538;52.180;5.646;2023-03-29T07:45:17;9.40;99.90
22249;DHT22;67538;52.180;5.646;2023-03-29T07:47:45;9.30;99.90
22249;DHT22;67538;52.180;5.646;2023-03-29T07:50:14;9.20;99.90
22249;DHT22;67538;52.180;5.646;2023-03-29T07:52:41;9.10;99.90
22249;DHT22;67538;52.180;5.646;2023-03-29T07:55:10;9.00;99.90
22249;DHT22;67538;52.180;5.646;2023-03-29T07:57:40;9.00;99.90
22249;DHT22;67538;52.180;5.646;2023-03-29T08:00:10;9.00;99.90
22249;DHT22;67538;52.180;5.646;2023-03-29T08:02:40;9.00;99.90
22249;DHT22;67538;52.180;5.646;2023-03-29T08:05:08;9.10;99.90
22249;DHT22;67538;52.180;5.646;2023-03-29T08:07:35;9.10;99.90
22249;DHT22;67538;52.180;5.646;2023-03-29T08:10:03;9.20;99.90
22249;DHT22;67538;52.180;5.646;2023-03-29T08:12:30;9.20;99.90
22249;DHT22;67538;52.180;5.646;2023-03-29T08:14:58;9.20;99.90
22249;DHT22;67538;52.180;5.646;2023-03-29T08:17:25;9.20;99.90
22249;DHT22;67538;52.180;5.646;2023-03-29T08:19:53;9.30;99.90
22249;DHT22;67538;52.180;5.646;2023-03-29T08:22:20;9.30;99.90
22249;DHT22;67538;52.180;5.646;2023-03-29T08:24:47;9.30;99.90
22249;DHT22;67538;52.180;5.646;2023-03-29T08:27:14;9.20;99.90
22249;DHT22;67538;52.180;5.646;2023-03-29T08:29:42;9.30;99.90
22249;DHT22;67538;52.180;5.646;2023-03-29T08:32:10;9.30;99.90
22249;DHT22;67538;52.180;5.646;2023-03-29T08:34:37;9.30;99.90
22249;DHT22;67538;52.180;5.646;2023-03-29T08:37:04;9.40;99.90
22249;DHT22;67538;52.180;5.646;2023-03-29T08:39:31;9.50;99.90
22249;DHT22;67538;52.180;5.646;2023-03-29T08:42:13;9.60;99.90
22249;DHT22;67538;52.180;5.646;2023-03-29T08:44:59;9.60;99.90
22249;DHT22;67538;52.180;5.646;2023-03-29T08:47:36;9.70;99.90
22249;DHT22;67538;52.180;5.646;2023-03-29T08:50:08;9.70;99.90
22249;DHT22;67538;52.180;5.646;2023-03-29T08:52:37;9.80;99.90
22249;DHT22;67538;52.180;5.646;2023-03-29T08:55:10;9.90;99.90
22249;DHT22;67538;52.180;5.646;2023-03-29T08:57:43;9.90;99.90
22249;DHT22;67538;52.180;5.646;2023-03-29T09:00:18;10.00;99.90
22249;DHT22;67538;52.180;5.646;2023-03-29T09:02:48;10.10;99.90
22249;DHT22;67538;52.180;5.646;2023-03-29T09:05:22;10.10;99.90
22249;DHT22;67538;52.180;5.646;2023-03-29T09:07:51;10.10;99.90
22249;DHT22;67538;52.180;5.646;2023-03-29T09:10:20;10.20;99.90
22249;DHT22;67538;52.180;5.646;2023-03-29T09:13:00;10.10;99.90
22249;DHT22;67538;52.180;5.646;2023-03-29T09:15:37;10.00;99.90
22249;DHT22;67538;52.180;5.646;2023-03-29T09:18:12;10.10;99.90
22249;DHT22;67538;52.180;5.646;2023-03-29T09:20:48;10.20;99.90
22249;DHT22;67538;52.180;5.646;2023-03-29T09:23:37;10.10;99.90
22249;DHT22;67538;52.180;5.646;2023-03-29T09:26:14;10.10;99.90
22249;DHT22;67538;52.180;5.646;2023-03-29T09:28:49;10.20;99.90
22249;DHT22;67538;52.180;5.646;2023-03-29T09:31:20;10.20;99.90
22249;DHT22;67538;52.180;5.646;2023-03-29T09:33:55;10.20;99.90
22249;DHT22;67538;52.180;5.646;2023-03-29T09:36:24;10.20;99.90
22249;DHT22;67538;52.180;5.646;2023-03-29T09:38:53;10.30;99.90
22249;DHT22;67538;52.180;5.646;2023-03-29T09:41:23;10.20;99.90
22249;DHT22;67538;52.180;5.646;2023-03-29T09:43:55;10.30;99.90
22249;DHT22;67538;52.180;5.646;2023-03-29T09:46:27;10.30;99.90
22249;DHT22;67538;52.180;5.646;2023-03-29T09:48:56;10.40;99.90
22249;DHT22;67538;52.180;5.646;2023-03-29T09:51:25;10.40;99.90
22249;DHT22;67538;52.180;5.646;2023-03-29T09:53:54;10.40;99.90
22249;DHT22;67538;52.180;5.646;2023-03-29T09:56:22;10.50;99.90
22249;DHT22;67538;52.180;5.646;2023-03-29T09:58:49;10.60;99.90
22249;DHT22;67538;52.180;5.646;2023-03-29T10:01:16;10.60;99.90
22249;DHT22;67538;52.180;5.646;2023-03-29T10:03:48;10.70;99.90
22249;DHT22;67538;52.180;5.646;2023-03-29T10:06:18;10.70;99.90
22249;DHT22;67538;52.180;5.646;2023-03-29T10:08:48;10.80;99.90
22249;DHT22;67538;52.180;5.646;2023-03-29T10:11:20;10.90;99.90
22249;DHT22;67538;52.180;5.646;2023-03-29T10:13:51;11.10;99.90
22249;DHT22;67538;52.180;5.646;2023-03-29T10:16:23;11.20;99.90
22249;DHT22;67538;52.180;5.646;2023-03-29T10:18:51;11.10;99.90
22249;DHT22;67538;52.180;5.646;2023-03-29T10:21:21;10.90;99.90
22249;DHT22;67538;52.180;5.646;2023-03-29T10:23:56;10.90;99.90
22249;DHT22;67538;52.180;5.646;2023-03-29T10:26:27;10.80;99.90
22249;DHT22;67538;52.180;5.646;2023-03-29T10:28:55;10.80;99.90
22249;DHT22;67538;52.180;5.646;2023-03-29T10:31:25;10.90;99.90
22249;DHT22;67538;52.180;5.646;2023-03-29T10:33:55;11.00;99.90
22249;DHT22;67538;52.180;5.646;2023-03-29T10:36:25;11.20;99.90
22249;DHT22;67538;52.180;5.646;2023-03-29T10:38:55;11.30;99.90
22249;DHT22;67538;52.180;5.646;2023-03-29T10:41:24;11.40;99.90
22249;DHT22;67538;52.180;5.646;2023-03-29T10:43:52;11.40;99.90
22249;DHT22;67538;52.180;5.646;2023-03-29T10:46:22;11.40;99.90
22249;DHT22;67538;52.180;5.646;2023-03-29T10:48:50;11.40;99.90
22249;DHT22;67538;52.180;5.646;2023-03-29T10:51:18;11.40;99.90
22249;DHT22;67538;52.180;5.646;2023-03-29T10:53:47;11.50;99.90
22249;DHT22;67538;52.180;5.646;2023-03-29T10:56:30;11.40;99.90
22249;DHT22;67538;52.180;5.646;2023-03-29T10:59:15;11.50;99.90
22249;DHT22;67538;52.180;5.646;2023-03-29T11:01:54;11.50;99.90
22249;DHT22;67538;52.180;5.646;2023-03-29T11:04:28;11.50;99.90
22249;DHT22;67538;52.180;5.646;2023-03-29T11:07:15;11.50;99.90
22249;DHT22;67538;52.180;5.646;2023-03-29T11:09:54;11.40;99.90
22249;DHT22;67538;52.180;5.646;2023-03-29T11:12:28;11.50;99.90
22249;DHT22;67538;52.180;5.646;2023-03-29T11:15:06;11.70;99.90
22249;DHT22;67538;52.180;5.646;2023-03-29T11:17:55;11.80;99.90
22249;DHT22;67538;52.180;5.646;2023-03-29T11:20:29;11.70;99.90
22249;DHT22;67538;52.180;5.646;2023-03-29T11:23:08;11.70;99.90
22249;DHT22;67538;52.180;5.646;2023-03-29T11:25:50;11.70;99.90
22249;DHT22;67538;52.180;5.646;2023-03-29T11:28:23;11.80;99.90
22249;DHT22;67538;52.180;5.646;2023-03-29T11:30:59;11.80;99.90
22249;DHT22;67538;52.180;5.646;2023-03-29T11:33:42;11.70;99.90
22249;DHT22;67538;52.180;5.646;2023-03-29T11:36:19;11.80;99.90
22249;DHT22;67538;52.180;5.646;2023-03-29T11:38:57;12.00;99.90
22249;DHT22;67538;52.180;5.646;2023-03-29T11:41:32;12.10;99.90
22249;DHT22;67538;52.180;5.646;2023-03-29T11:44:03;12.10;99.90
22249;DHT22;67538;52.180;5.646;2023-03-29T11:46:34;12.00;99.90
22249;DHT22;67538;52.180;5.646;2023-03-29T11:49:08;12.00;99.90
22249;DHT22;67538;52.180;5.646;2023-03-29T11:51:40;11.90;99.90
22249;DHT22;67538;52.180;5.646;2023-03-29T11:54:15;11.90;99.90
22249;DHT22;67538;52.180;5.646;2023-03-29T11:56:48;11.90;99.90
22249;DHT22;67538;52.180;5.646;2023-03-29T11:59:22;11.80;99.90
22249;DHT22;67538;52.180;5.646;2023-03-29T12:01:53;11.80;99.90
22249;DHT22;67538;52.180;5.646;2023-03-29T12:04:24;11.70;99.90
22249;DHT22;67538;52.180;5.646;2023-03-29T12:07:00;11.70;99.90
22249;DHT22;67538;52.180;5.646;2023-03-29T12:09:33;11.60;99.90
22249;DHT22;67538;52.180;5.646;2023-03-29T12:12:06;11.70;99.90
22249;DHT22;67538;52.180;5.646;2023-03-29T12:14:53;11.70;99.90
22249;DHT22;67538;52.180;5.646;2023-03-29T12:17:26;11.80;99.90
22249;DHT22;67538;52.180;5.646;2023-03-29T12:20:02;11.90;99.90
22249;DHT22;67538;52.180;5.646;2023-03-29T12:22:31;12.00;99.90
22249;DHT22;67538;52.180;5.646;2023-03-29T12:24:59;12.00;99.90
22249;DHT22;67538;52.180;5.646;2023-03-29T12:27:33;12.20;99.90
22249;DHT22;67538;52.180;5.646;2023-03-29T12:30:32;12.20;99.90
22249;DHT22;67538;52.180;5.646;2023-03-29T12:36:18;12.30;99.90
22249;DHT22;67538;52.180;5.646;2023-03-29T12:38:51;12.20;99.90
22249;DHT22;67538;52.180;5.646;2023-03-29T12:41:20;12.30;99.90
22249;DHT22;67538;52.180;5.646;2023-03-29T12:43:50;12.20;99.90
22249;DHT22;67538;52.180;5.646;2023-03-29T12:46:19;12.10;99.90
22249;DHT22;67538;52.180;5.646;2023-03-29T12:48:52;12.10;99.90
22249;DHT22;67538;52.180;5.646;2023-03-29T12:51:21;12.10;99.90
22249;DHT22;67538;52.180;5.646;2023-03-29T12:53:55;12.20;99.90
22249;DHT22;67538;52.180;5.646;2023-03-29T12:56:35;12.10;99.90
22249;DHT22;67538;52.180;5.646;2023-03-29T12:59:17;12.00;99.90
22249;DHT22;67538;52.180;5.646;2023-03-29T13:02:00;11.90;99.90
22249;DHT22;67538;52.180;5.646;2023-03-29T13:04:48;11.80;99.90
22249;DHT22;67538;52.180;5.646;2023-03-29T13:07:28;11.50;99.90
22249;DHT22;67538;52.180;5.646;2023-03-29T13:09:57;11.40;99.90
22249;DHT22;67538;52.180;5.646;2023-03-29T13:12:26;11.40;99.90
22249;DHT22;67538;52.180;5.646;2023-03-29T13:14:58;11.40;99.90
22249;DHT22;67538;52.180;5.646;2023-03-29T13:17:33;11.40;99.90
22249;DHT22;67538;52.180;5.646;2023-03-29T13:20:27;11.40;99.90
22249;DHT22;67538;52.180;5.646;2023-03-29T13:23:04;11.40;99.90
22249;DHT22;67538;52.180;5.646;2023-03-29T13:25:54;11.50;99.90
22249;DHT22;67538;52.180;5.646;2023-03-29T13:28:31;11.70;99.90
22249;DHT22;67538;52.180;5.646;2023-03-29T13:31:05;11.90;99.90
22249;DHT22;67538;52.180;5.646;2023-03-29T13:33:55;12.00;99.90
22249;DHT22;67538;52.180;5.646;2023-03-29T13:36:33;12.10;99.90
22249;DHT22;67538;52.180;5.646;2023-03-29T13:39:05;12.20;99.90
22249;DHT22;67538;52.180;5.646;2023-03-29T13:41:45;12.40;99.90
22249;DHT22;67538;52.180;5.646;2023-03-29T13:44:24;12.60;99.90
22249;DHT22;67538;52.180;5.646;2023-03-29T13:47:03;12.60;99.90
22249;DHT22;67538;52.180;5.646;2023-03-29T13:49:33;12.70;99.90
22249;DHT22;67538;52.180;5.646;2023-03-29T13:52:11;12.70;99.90
22249;DHT22;67538;52.180;5.646;2023-03-29T13:54:44;12.80;99.90
22249;DHT22;67538;52.180;5.646;2023-03-29T13:57:15;12.70;99.90
22249;DHT22;67538;52.180;5.646;2023-03-29T13:59:54;12.70;99.90
22249;DHT22;67538;52.180;5.646;2023-03-29T14:02:31;12.50;99.90
22249;DHT22;67538;52.180;5.646;2023-03-29T14:04:59;12.60;99.90
22249;DHT22;67538;52.180;5.646;2023-03-29T14:07:30;12.60;99.90
22249;DHT22;67538;52.180;5.646;2023-03-29T14:09:59;12.60;99.90
22249;DHT22;67538;52.180;5.646;2023-03-29T14:12:31;12.50;99.90
22249;DHT22;67538;52.180;5.646;2023-03-29T14:15:01;12.50;99.90
22249;DHT22;67538;52.180;5.646;2023-03-29T14:17:31;12.60;99.90
22249;DHT22;67538;52.180;5.646;2023-03-29T14:20:00;12.70;99.90
22249;DHT22;67538;52.180;5.646;2023-03-29T14:22:33;12.80;99.90
22249;DHT22;67538;52.180;5.646;2023-03-29T14:25:04;12.90;99.90
22249;DHT22;67538;52.180;5.646;2023-03-29T14:27:34;12.90;99.90
22249;DHT22;67538;52.180;5.646;2023-03-29T14:30:17;12.90;99.90
22249;DHT22;67538;52.180;5.646;2023-03-29T14:32:47;12.90;99.90
22249;DHT22;67538;52.180;5.646;2023-03-29T14:35:16;12.90;99.90
22249;DHT22;67538;52.180;5.646;2023-03-29T14:37:43;12.90;99.90
22249;DHT22;67538;52.180;5.646;2023-03-29T14:40:16;12.80;99.90
22249;DHT22;67538;52.180;5.646;2023-03-29T14:42:45;12.80;99.90
22249;DHT22;67538;52.180;5.646;2023-03-29T14:45:16;12.80;99.90
22249;DHT22;67538;52.180;5.646;2023-03-29T14:47:45;12.80;99.90
22249;DHT22;67538;52.180;5.646;2023-03-29T14:50:18;12.90;99.90
22249;DHT22;67538;52.180;5.646;2023-03-29T14:52:46;12.90;99.90
22249;DHT22;67538;52.180;5.646;2023-03-29T14:55:15;13.00;99.90
22249;DHT22;67538;52.180;5.646;2023-03-29T14:57:48;13.10;99.90
22249;DHT22;67538;52.180;5.646;2023-03-29T15:00:20;13.10;99.90
22249;DHT22;67538;52.180;5.646;2023-03-29T15:02:56;13.10;99.90
22249;DHT22;67538;52.180;5.646;2023-03-29T15:05:33;13.20;99.90
22249;DHT22;67538;52.180;5.646;2023-03-29T15:08:02;13.30;99.90
22249;DHT22;67538;52.180;5.646;2023-03-29T15:10:32;13.30;99.90
22249;DHT22;67538;52.180;5.646;2023-03-29T15:13:01;13.40;99.90
22249;DHT22;67538;52.180;5.646;2023-03-29T15:15:30;13.40;99.90
22249;DHT22;67538;52.180;5.646;2023-03-29T15:18:01;13.40;99.90
22249;DHT22;67538;52.180;5.646;2023-03-29T15:20:31;13.40;99.90
22249;DHT22;67538;52.180;5.646;2023-03-29T15:23:00;13.50;99.90
22249;DHT22;67538;52.180;5.646;2023-03-29T15:25:32;13.50;99.90
22249;DHT22;67538;52.180;5.646;2023-03-29T15:28:00;13.60;99.90
22249;DHT22;67538;52.180;5.646;2023-03-29T15:30:31;13.60;99.90
22249;DHT22;67538;52.180;5.646;2023-03-29T15:33:30;13.60;99.90
22249;DHT22;67538;52.180;5.646;2023-03-29T15:35:57;13.60;99.90
22249;DHT22;67538;52.180;5.646;2023-03-29T15:38:24;13.60;99.90
22249;DHT22;67538;52.180;5.646;2023-03-29T15:40:52;13.60;99.90
22249;DHT22;67538;52.180;5.646;2023-03-29T15:43:19;13.70;99.90
22249;DHT22;67538;52.180;5.646;2023-03-29T15:45:47;13.70;99.90
22249;DHT22;67538;52.180;5.646;2023-03-29T15:48:15;13.70;99.90
22249;DHT22;67538;52.180;5.646;2023-03-29T15:50:44;13.70;99.90
22249;DHT22;67538;52.180;5.646;2023-03-29T15:53:12;13.70;99.90
22249;DHT22;67538;52.180;5.646;2023-03-29T15:55:43;13.60;99.90
22249;DHT22;67538;52.180;5.646;2023-03-29T15:58:12;13.60;99.90
22249;DHT22;67538;52.180;5.646;2023-03-29T16:00:42;13.60;99.90
22249;DHT22;67538;52.180;5.646;2023-03-29T16:03:13;13.70;99.90
22249;DHT22;67538;52.180;5.646;2023-03-29T16:05:41;13.60;99.90